Terminal Aerodrome Forecast
Issued by NWS

Home | Current Version | Previous Version | Text Only | Print | Product List | Glossary On
Versions: 1 2 3 4 5 6 7 8 9 10 11 12 13 14 15 16 17 18
000
FTUS44 KSJT 250530
TAFJCT
TAF
KJCT 250530Z 2506/2606 VRB05KT 6SM BR BKN025
     FM250700 17007KT 6SM BR OVC007
     FM251700 19008KT 6SM HZ OVC015
     FM252100 19009KT P6SM OVC250
     FM260000 16008KT 6SM BR BKN050 PROB30 2600/2604 4SM TSRA
      BKN050CB=

USA.gov is the U.S. government's official web portal to all federal, state and local government web resources and services.